Mars — XPC8385 — position and weather

sailwx.info

Track history (hours):
 
Tides and Currents Weather Stations Pressure Air Temp Water Temp Dewpoint Dewpoint Depression Visibility Wind Speed Wind Dir Waves Ship Positions

Mars

Last reported at 2015-May-27 04:31 UTC. Time now 2015-May-27 05:54 UTC.
Position N 55°17' E 014°48'.

Length 14 m; draft 1.7 m.

Type: Pilot. MMSI: 219001058.

Date/timePositionNaut miles runAvg speedWind from/ knotsBaromVisibWave heightAir tempDewpointWater temp
2015-May-27 04:31N 55°17' E 014°48'0 0.0
2015-May-27 03:33N 55°17' E 014°48'0 0.0
2015-May-27 02:33N 55°17' E 014°48'0 0.0
2015-May-27 01:33N 55°17' E 014°48'0 0.0
2015-May-27 00:33N 55°17' E 014°48'0 0.0
2015-May-26 23:33N 55°17' E 014°48'0 0.0
2015-May-26 22:27N 55°17' E 014°48'0 0.0
2015-May-26 21:33N 55°17' E 014°48'0 0.0
2015-May-26 20:33N 55°17' E 014°48'0 0.0
2015-May-26 19:33N 55°17' E 014°48'0 0.0
2015-May-26 18:33N 55°17' E 014°48'0 0.0
2015-May-26 17:33N 55°17' E 014°48'0 0.0
2015-May-26 16:33N 55°17' E 014°48'2 1.5
2015-May-26 15:33N 55°18' E 014°50'2 1.4
2015-May-26 14:29N 55°17' E 014°48'0 0.0
2015-May-26 13:29N 55°17' E 014°48'0 0.0
2015-May-26 12:28N 55°17' E 014°48'0 0.0
2015-May-26 11:28N 55°17' E 014°48'0 0.0
2015-May-26 10:28N 55°17' E 014°48'0 0.0
2015-May-26 09:22N 55°17' E 014°48'0 0.0
2015-May-26 08:33N 55°17' E 014°48'3 2.6
2015-May-26 07:33N 55°18' E 014°51'3 2.5
2015-May-26 06:31N 55°17' E 014°48'3 2.7
2015-May-26 05:33N 55°17' E 014°53'3 2.5
2015-May-26 04:30N 55°17' E 014°48'0 0.0
2015-May-26 03:30N 55°17' E 014°48'0 0.0
2015-May-26 02:30N 55°17' E 014°48'0 0.0
2015-May-26 01:30N 55°17' E 014°48'0 0.0
2015-May-26 00:30N 55°17' E 014°48'0 0.0
2015-May-25 23:30N 55°17' E 014°48'0 0.0
2015-May-25 22:30N 55°17' E 014°48'0 0.0
2015-May-25 21:30N 55°17' E 014°48'0 0.0
2015-May-25 20:30N 55°17' E 014°48'0 0.0
2015-May-25 16:24N 55°17' E 014°48'0 0.0
2015-May-25 15:30N 55°17' E 014°48'0 0.0
2015-May-25 14:30N 55°17' E 014°48'0 0.0
2015-May-25 13:30N 55°17' E 014°48'0 0.0
2015-May-25 12:30N 55°17' E 014°48'0 0.0
2015-May-25 11:30N 55°17' E 014°48'0 0.0
2015-May-25 10:30N 55°17' E 014°48'0 0.0
2015-May-25 09:30N 55°17' E 014°48'0 0.0
2015-May-25 08:30N 55°17' E 014°48'0 0.0
2015-May-25 07:30N 55°17' E 014°48'0 0.0
2015-May-25 06:30N 55°17' E 014°48'0 0.0
2015-May-25 05:30N 55°17' E 014°48'0 0.0
2015-May-25 04:30N 55°17' E 014°48'0 0.0
2015-May-25 03:30N 55°17' E 014°48'0 0.0
2015-May-25 02:30N 55°17' E 014°48'0 0.0
2015-May-25 01:30N 55°17' E 014°48'0 0.0
2015-May-25 00:18N 55°17' E 014°48'0 0.0
2015-May-24 23:30N 55°17' E 014°48'0 0.0
2015-May-24 22:29N 55°17' E 014°48'0 0.0
2015-May-24 21:29N 55°17' E 014°48'0 0.0
2015-May-24 20:23N 55°17' E 014°48'0 0.0
2015-May-24 19:23N 55°17' E 014°48'0 0.0
2015-May-24 18:29N 55°17' E 014°48'0 0.0
2015-May-24 17:29N 55°17' E 014°48'0 0.0
2015-May-24 16:29N 55°17' E 014°48'0 0.0
2015-May-24 15:24N 55°17' E 014°48'0 0.0
2015-May-24 14:30N 55°17' E 014°48'0 0.0
2015-May-24 13:30N 55°17' E 014°48'0 0.0
2015-May-24 12:30N 55°17' E 014°48'0 0.0
2015-May-24 11:30N 55°17' E 014°48'0 0.0
2015-May-24 10:30N 55°17' E 014°48'0 0.0
2015-May-24 09:33N 55°17' E 014°48'0 0.0
2015-May-24 08:28N 55°17' E 014°48'0 0.0
2015-May-24 07:28N 55°17' E 014°48'0 0.0
2015-May-24 06:28N 55°17' E 014°48'0 0.0
2015-May-24 05:28N 55°17' E 014°48'0 0.0
2015-May-24 04:28N 55°17' E 014°48'0 0.0
2015-May-24 03:28N 55°17' E 014°48'0 0.0
2015-May-24 02:28N 55°17' E 014°48'0 0.0
2015-May-24 01:28N 55°17' E 014°48'0 0.0
2015-May-23 22:20N 55°17' E 014°48'0 0.0
2015-May-23 21:32N 55°17' E 014°48'0 0.0
2015-May-23 20:26N 55°17' E 014°48'0 0.0
2015-May-23 19:32N 55°17' E 014°48'0 0.0
2015-May-23 18:32N 55°17' E 014°48'0 0.0
2015-May-23 17:31N 55°17' E 014°48'0 0.0
2015-May-23 16:31N 55°17' E 014°48'0 0.0
2015-May-23 15:31N 55°17' E 014°48'2 1.8
2015-May-23 14:31N 55°18' E 014°47'2 1.7
2015-May-23 13:28N 55°17' E 014°48'0 0.0
2015-May-23 12:30N 55°17' E 014°48'0 0.0
2015-May-23 11:30N 55°17' E 014°48'0 0.0
2015-May-23 10:30N 55°17' E 014°48'0 0.0
2015-May-23 09:30N 55°17' E 014°48'0 0.0
2015-May-23 08:33N 55°17' E 014°48'0 0.0
2015-May-23 07:33N 55°17' E 014°48'0 0.0
2015-May-23 06:33N 55°17' E 014°48'0 0.0
2015-May-23 05:27N 55°17' E 014°48'0 0.0
2015-May-23 04:33N 55°17' E 014°48'0 0.0
2015-May-23 03:33N 55°17' E 014°48'0 0.0
2015-May-23 02:33N 55°17' E 014°48'0 0.0
2015-May-23 01:33N 55°17' E 014°48'0 0.0
2015-May-23 00:33N 55°17' E 014°48'0 0.0
2015-May-22 23:33N 55°17' E 014°48'0 0.0
2015-May-22 22:26N 55°17' E 014°48'0 0.0
2015-May-22 21:32N 55°17' E 014°48'0 0.0
2015-May-22 20:26N 55°17' E 014°48'0 0.0
2015-May-22 19:32N 55°17' E 014°48'0 0.0
2015-May-22 18:32N 55°17' E 014°48'0 0.0
2015-May-22 17:32N 55°17' E 014°48'2 1.5
2015-May-22 16:33N 55°18' E 014°47'2 1.4
2015-May-22 15:29N 55°17' E 014°48'0 0.0
2015-May-22 14:29N 55°17' E 014°48'0 0.0
2015-May-22 13:29N 55°17' E 014°48'0 0.0
2015-May-22 12:29N 55°17' E 014°48'0 0.0
2015-May-22 11:29N 55°17' E 014°48'0 0.0
2015-May-22 10:29N 55°17' E 014°48'0 0.0
2015-May-22 09:29N 55°17' E 014°48'0 0.0
2015-May-22 08:29N 55°17' E 014°48'0 0.0
2015-May-22 07:28N 55°17' E 014°48'0 0.0
2015-May-22 06:28N 55°17' E 014°48'0 0.0
2015-May-22 05:28N 55°17' E 014°48'0 0.0
2015-May-22 04:22N 55°17' E 014°48'3 4.2
2015-May-22 03:33N 55°20' E 014°51'3 3.3
2015-May-22 02:32N 55°17' E 014°48'0 0.0
2015-May-22 01:32N 55°17' E 014°48'0 0.0
2015-May-22 00:29N 55°17' E 014°48'0 0.0
2015-May-21 23:29N 55°17' E 014°48'0 0.0
2015-May-21 22:29N 55°17' E 014°48'0 0.0
2015-May-21 21:29N 55°17' E 014°48'0 0.0
2015-May-21 20:29N 55°17' E 014°48'0 0.0
2015-May-21 19:29N 55°17' E 014°48'0 0.0
2015-May-21 18:29N 55°17' E 014°48'0 0.0
2015-May-21 17:28N 55°17' E 014°48'0 0.2
2015-May-21 16:33N 55°17' E 014°48'0 0.2
2015-May-21 15:32N 55°17' E 014°48'0 0.0
2015-May-21 14:30N 55°17' E 014°48'0 0.0
2015-May-21 13:24N 55°17' E 014°48'0 0.0
2015-May-21 12:27N 55°17' E 014°48'0 0.0
2015-May-21 11:31N 55°17' E 014°48'0 0.0
2015-May-21 10:31N 55°17' E 014°48'0 0.0
2015-May-21 09:31N 55°17' E 014°48'0 0.0
2015-May-21 08:31N 55°17' E 014°48'0 0.0
2015-May-21 07:31N 55°17' E 014°48'0 0.0
2015-May-21 06:31N 55°17' E 014°48'0 0.0
2015-May-21 05:31N 55°17' E 014°48'0 0.0
2015-May-21 04:31N 55°17' E 014°48'0 0.0
2015-May-21 03:31N 55°17' E 014°48'0 0.0
2015-May-21 02:25N 55°17' E 014°48'0 0.0
2015-May-21 01:25N 55°17' E 014°48'0 0.0
2015-May-21 00:19N 55°17' E 014°48'0 0.0
2015-May-20 23:31N 55°17' E 014°48'0 0.0
2015-May-20 22:31N 55°17' E 014°48'0 0.0
2015-May-20 21:31N 55°17' E 014°48'0 0.0
2015-May-20 20:31N 55°17' E 014°48'0 0.0
2015-May-20 19:30N 55°17' E 014°48'0 0.0
2015-May-20 18:30N 55°17' E 014°48'0 0.0
2015-May-20 17:30N 55°17' E 014°48'0 0.0
2015-May-20 16:30N 55°17' E 014°48'0 0.0
2015-May-20 15:18N 55°17' E 014°48'0 0.0
2015-May-20 14:30N 55°17' E 014°48'0 0.0
2015-May-20 13:30N 55°17' E 014°48'0 0.0
2015-May-20 12:30N 55°17' E 014°48'0 0.0
2015-May-20 11:30N 55°17' E 014°48'0 0.0
2015-May-20 10:30N 55°17' E 014°48'0 0.0
2015-May-20 09:30N 55°17' E 014°48'0 0.0
2015-May-20 08:30N 55°17' E 014°48'0 0.0
2015-May-20 07:30N 55°17' E 014°48'0 0.0
2015-May-20 06:30N 55°17' E 014°48'0 0.0
2015-May-20 05:30N 55°17' E 014°48'4 4.3
2015-May-20 04:33N 55°21' E 014°48'4 3.8
2015-May-20 03:28N 55°17' E 014°48'0 0.0
2015-May-20 02:28N 55°17' E 014°48'0 0.0
2015-May-20 01:28N 55°17' E 014°48'0 0.0
2015-May-20 00:28N 55°17' E 014°48'0 0.1
2015-May-19 23:34N 55°17' E 014°48'0 0.1
2015-May-19 22:30N 55°17' E 014°48'0 0.0
2015-May-19 21:30N 55°17' E 014°48'0 0.0
2015-May-19 20:30N 55°17' E 014°48'0 0.0
2015-May-19 19:30N 55°17' E 014°48'0 0.0
2015-May-19 18:31N 55°17' E 014°48'0 0.0
2015-May-19 17:31N 55°17' E 014°48'0 0.0
2015-May-19 16:31N 55°17' E 014°48'0 0.0
2015-May-19 15:31N 55°17' E 014°48'0 0.0
2015-May-19 14:33N 55°17' E 014°48'0 0.1
2015-May-19 13:33N 55°17' E 014°48'0 0.1
2015-May-19 12:31N 55°17' E 014°48'0 0.0
2015-May-19 11:31N 55°17' E 014°48'0 0.0
2015-May-19 10:31N 55°17' E 014°48'0 0.0
2015-May-19 09:31N 55°17' E 014°48'0 0.0
2015-May-19 08:31N 55°17' E 014°48'0 0.0
2015-May-19 07:19N 55°17' E 014°48'0 0.0
2015-May-19 06:31N 55°17' E 014°48'0 0.0
2015-May-19 05:31N 55°17' E 014°48'0 0.0
2015-May-19 04:19N 55°17' E 014°48'0 0.0
2015-May-19 03:25N 55°17' E 014°48'2 1.8
2015-May-19 02:31N 55°18' E 014°49'2 1.7
2015-May-19 01:33N 55°17' E 014°48'0 0.0
2015-May-19 00:33N 55°17' E 014°48'0 0.0
2015-May-18 23:33N 55°17' E 014°48'0 0.0
2015-May-18 22:33N 55°17' E 014°48'0 0.0
2015-May-18 21:33N 55°17' E 014°48'0 0.0
2015-May-18 20:33N 55°17' E 014°48'0 0.0
2015-May-18 19:33N 55°17' E 014°48'0 0.0
2015-May-18 18:33N 55°17' E 014°48'0 0.0
2015-May-18 17:33N 55°17' E 014°48'0 0.0
2015-May-18 16:33N 55°17' E 014°48'0 0.0
2015-May-18 15:31N 55°17' E 014°48'0 0.0
2015-May-18 14:33N 55°17' E 014°48'0 0.0
2015-May-18 13:33N 55°17' E 014°48'0 0.0
2015-May-18 12:33N 55°17' E 014°48'0 0.0
2015-May-18 11:33N 55°17' E 014°48'2 2.2
2015-May-18 10:34N 55°18' E 014°51'2 2.1
2015-May-18 09:31N 55°17' E 014°48'0 0.0
2015-May-18 08:31N 55°17' E 014°48'0 0.0
2015-May-18 07:31N 55°17' E 014°48'0 0.0
2015-May-18 06:31N 55°17' E 014°48'0 0.0
2015-May-18 05:31N 55°17' E 014°48'2 1.7
2015-May-18 04:33N 55°18' E 014°48'2 1.5
2015-May-18 03:31N 55°17' E 014°48'0 0.0
2015-May-18 02:31N 55°17' E 014°48'0 0.0
2015-May-18 01:31N 55°17' E 014°48'0 0.0
2015-May-18 00:31N 55°17' E 014°48'0 0.0
2015-May-17 23:31N 55°17' E 014°48'0 0.0
2015-May-17 22:25N 55°17' E 014°48'0 0.0
2015-May-17 21:31N 55°17' E 014°48'0 0.0
2015-May-17 20:31N 55°17' E 014°48'0 0.0
2015-May-17 19:31N 55°17' E 014°48'0 0.0
2015-May-17 18:32N 55°17' E 014°48'0 0.0
2015-May-17 17:32N 55°17' E 014°48'0 0.0
2015-May-17 16:26N 55°17' E 014°48'0 0.0
2015-May-17 15:32N 55°17' E 014°48'0 0.0
2015-May-17 14:33N 55°17' E 014°48'0 0.0
2015-May-17 13:22N 55°17' E 014°48'0 0.0
2015-May-17 12:22N 55°17' E 014°48'0 0.0
2015-May-17 11:34N 55°17' E 014°48'0 0.0
2015-May-17 10:22N 55°17' E 014°48'0 0.0
2015-May-17 09:28N 55°17' E 014°48'0 0.0
2015-May-17 08:16N 55°17' E 014°48'0 0.0
2015-May-17 07:22N 55°17' E 014°48'2 2.5
2015-May-17 06:34N 55°18' E 014°50'2 1.9
2015-May-17 05:29N 55°17' E 014°48'  
Track history (hours):
 
Tides and Currents Weather Stations Pressure Air Temp Water Temp Dewpoint Dewpoint Depression Visibility Wind Speed Wind Dir Waves Ship Positions

Mars

Last reported at 2015-May-27 04:31 UTC. Time now 2015-May-27 05:54 UTC.
Position N 55°17' E 014°48'.

Length 14 m; draft 1.7 m.

Type: Pilot. MMSI: 219001058.

Date/timePositionNaut miles runAvg speedWind from/ knotsBaromVisibWave heightAir tempDewpointWater temp
2015-May-27 04:31N 55°17' E 014°48'0 0.0
2015-May-27 03:33N 55°17' E 014°48'0 0.0
2015-May-27 02:33N 55°17' E 014°48'0 0.0
2015-May-27 01:33N 55°17' E 014°48'0 0.0
2015-May-27 00:33N 55°17' E 014°48'0 0.0
2015-May-26 23:33N 55°17' E 014°48'0 0.0
2015-May-26 22:27N 55°17' E 014°48'0 0.0
2015-May-26 21:33N 55°17' E 014°48'0 0.0
2015-May-26 20:33N 55°17' E 014°48'0 0.0
2015-May-26 19:33N 55°17' E 014°48'0 0.0
2015-May-26 18:33N 55°17' E 014°48'0 0.0
2015-May-26 17:33N 55°17' E 014°48'0 0.0
2015-May-26 16:33N 55°17' E 014°48'2 1.5
2015-May-26 15:33N 55°18' E 014°50'2 1.4
2015-May-26 14:29N 55°17' E 014°48'0 0.0
2015-May-26 13:29N 55°17' E 014°48'0 0.0
2015-May-26 12:28N 55°17' E 014°48'0 0.0
2015-May-26 11:28N 55°17' E 014°48'0 0.0
2015-May-26 10:28N 55°17' E 014°48'0 0.0
2015-May-26 09:22N 55°17' E 014°48'0 0.0
2015-May-26 08:33N 55°17' E 014°48'3 2.6
2015-May-26 07:33N 55°18' E 014°51'3 2.5
2015-May-26 06:31N 55°17' E 014°48'3 2.7
2015-May-26 05:33N 55°17' E 014°53'3 2.5
2015-May-26 04:30N 55°17' E 014°48'0 0.0
2015-May-26 03:30N 55°17' E 014°48'0 0.0
2015-May-26 02:30N 55°17' E 014°48'0 0.0
2015-May-26 01:30N 55°17' E 014°48'0 0.0
2015-May-26 00:30N 55°17' E 014°48'0 0.0
2015-May-25 23:30N 55°17' E 014°48'0 0.0
2015-May-25 22:30N 55°17' E 014°48'0 0.0
2015-May-25 21:30N 55°17' E 014°48'0 0.0
2015-May-25 20:30N 55°17' E 014°48'0 0.0
2015-May-25 16:24N 55°17' E 014°48'0 0.0
2015-May-25 15:30N 55°17' E 014°48'0 0.0
2015-May-25 14:30N 55°17' E 014°48'0 0.0
2015-May-25 13:30N 55°17' E 014°48'0 0.0
2015-May-25 12:30N 55°17' E 014°48'0 0.0
2015-May-25 11:30N 55°17' E 014°48'0 0.0
2015-May-25 10:30N 55°17' E 014°48'0 0.0
2015-May-25 09:30N 55°17' E 014°48'0 0.0
2015-May-25 08:30N 55°17' E 014°48'0 0.0
2015-May-25 07:30N 55°17' E 014°48'0 0.0
2015-May-25 06:30N 55°17' E 014°48'0 0.0
2015-May-25 05:30N 55°17' E 014°48'0 0.0
2015-May-25 04:30N 55°17' E 014°48'0 0.0
2015-May-25 03:30N 55°17' E 014°48'0 0.0
2015-May-25 02:30N 55°17' E 014°48'0 0.0
2015-May-25 01:30N 55°17' E 014°48'0 0.0
2015-May-25 00:18N 55°17' E 014°48'0 0.0
2015-May-24 23:30N 55°17' E 014°48'0 0.0
2015-May-24 22:29N 55°17' E 014°48'0 0.0
2015-May-24 21:29N 55°17' E 014°48'0 0.0
2015-May-24 20:23N 55°17' E 014°48'0 0.0
2015-May-24 19:23N 55°17' E 014°48'0 0.0
2015-May-24 18:29N 55°17' E 014°48'0 0.0
2015-May-24 17:29N 55°17' E 014°48'0 0.0
2015-May-24 16:29N 55°17' E 014°48'0 0.0
2015-May-24 15:24N 55°17' E 014°48'0 0.0
2015-May-24 14:30N 55°17' E 014°48'0 0.0
2015-May-24 13:30N 55°17' E 014°48'0 0.0
2015-May-24 12:30N 55°17' E 014°48'0 0.0
2015-May-24 11:30N 55°17' E 014°48'0 0.0
2015-May-24 10:30N 55°17' E 014°48'0 0.0
2015-May-24 09:33N 55°17' E 014°48'0 0.0
2015-May-24 08:28N 55°17' E 014°48'0 0.0
2015-May-24 07:28N 55°17' E 014°48'0 0.0
2015-May-24 06:28N 55°17' E 014°48'0 0.0
2015-May-24 05:28N 55°17' E 014°48'0 0.0
2015-May-24 04:28N 55°17' E 014°48'0 0.0
2015-May-24 03:28N 55°17' E 014°48'0 0.0
2015-May-24 02:28N 55°17' E 014°48'0 0.0
2015-May-24 01:28N 55°17' E 014°48'0 0.0
2015-May-23 22:20N 55°17' E 014°48'0 0.0
2015-May-23 21:32N 55°17' E 014°48'0 0.0
2015-May-23 20:26N 55°17' E 014°48'0 0.0
2015-May-23 19:32N 55°17' E 014°48'0 0.0
2015-May-23 18:32N 55°17' E 014°48'0 0.0
2015-May-23 17:31N 55°17' E 014°48'0 0.0
2015-May-23 16:31N 55°17' E 014°48'0 0.0
2015-May-23 15:31N 55°17' E 014°48'2 1.8
2015-May-23 14:31N 55°18' E 014°47'2 1.7
2015-May-23 13:28N 55°17' E 014°48'0 0.0
2015-May-23 12:30N 55°17' E 014°48'0 0.0
2015-May-23 11:30N 55°17' E 014°48'0 0.0
2015-May-23 10:30N 55°17' E 014°48'0 0.0
2015-May-23 09:30N 55°17' E 014°48'0 0.0
2015-May-23 08:33N 55°17' E 014°48'0 0.0
2015-May-23 07:33N 55°17' E 014°48'0 0.0
2015-May-23 06:33N 55°17' E 014°48'0 0.0
2015-May-23 05:27N 55°17' E 014°48'0 0.0
2015-May-23 04:33N 55°17' E 014°48'0 0.0
2015-May-23 03:33N 55°17' E 014°48'0 0.0
2015-May-23 02:33N 55°17' E 014°48'0 0.0
2015-May-23 01:33N 55°17' E 014°48'0 0.0
2015-May-23 00:33N 55°17' E 014°48'0 0.0
2015-May-22 23:33N 55°17' E 014°48'0 0.0
2015-May-22 22:26N 55°17' E 014°48'0 0.0
2015-May-22 21:32N 55°17' E 014°48'0 0.0
2015-May-22 20:26N 55°17' E 014°48'0 0.0
2015-May-22 19:32N 55°17' E 014°48'0 0.0
2015-May-22 18:32N 55°17' E 014°48'0 0.0
2015-May-22 17:32N 55°17' E 014°48'2 1.5
2015-May-22 16:33N 55°18' E 014°47'2 1.4
2015-May-22 15:29N 55°17' E 014°48'0 0.0
2015-May-22 14:29N 55°17' E 014°48'0 0.0
2015-May-22 13:29N 55°17' E 014°48'0 0.0
2015-May-22 12:29N 55°17' E 014°48'0 0.0
2015-May-22 11:29N 55°17' E 014°48'0 0.0
2015-May-22 10:29N 55°17' E 014°48'0 0.0
2015-May-22 09:29N 55°17' E 014°48'0 0.0
2015-May-22 08:29N 55°17' E 014°48'0 0.0
2015-May-22 07:28N 55°17' E 014°48'0 0.0
2015-May-22 06:28N 55°17' E 014°48'0 0.0
2015-May-22 05:28N 55°17' E 014°48'0 0.0
2015-May-22 04:22N 55°17' E 014°48'3 4.2
2015-May-22 03:33N 55°20' E 014°51'3 3.3
2015-May-22 02:32N 55°17' E 014°48'0 0.0
2015-May-22 01:32N 55°17' E 014°48'0 0.0
2015-May-22 00:29N 55°17' E 014°48'0 0.0
2015-May-21 23:29N 55°17' E 014°48'0 0.0
2015-May-21 22:29N 55°17' E 014°48'0 0.0
2015-May-21 21:29N 55°17' E 014°48'0 0.0
2015-May-21 20:29N 55°17' E 014°48'0 0.0
2015-May-21 19:29N 55°17' E 014°48'0 0.0
2015-May-21 18:29N 55°17' E 014°48'0 0.0
2015-May-21 17:28N 55°17' E 014°48'0 0.2
2015-May-21 16:33N 55°17' E 014°48'0 0.2
2015-May-21 15:32N 55°17' E 014°48'0 0.0
2015-May-21 14:30N 55°17' E 014°48'0 0.0
2015-May-21 13:24N 55°17' E 014°48'0 0.0
2015-May-21 12:27N 55°17' E 014°48'0 0.0
2015-May-21 11:31N 55°17' E 014°48'0 0.0
2015-May-21 10:31N 55°17' E 014°48'0 0.0
2015-May-21 09:31N 55°17' E 014°48'0 0.0
2015-May-21 08:31N 55°17' E 014°48'0 0.0
2015-May-21 07:31N 55°17' E 014°48'0 0.0
2015-May-21 06:31N 55°17' E 014°48'0 0.0
2015-May-21 05:31N 55°17' E 014°48'0 0.0
2015-May-21 04:31N 55°17' E 014°48'0 0.0
2015-May-21 03:31N 55°17' E 014°48'0 0.0
2015-May-21 02:25N 55°17' E 014°48'0 0.0
2015-May-21 01:25N 55°17' E 014°48'0 0.0
2015-May-21 00:19N 55°17' E 014°48'0 0.0
2015-May-20 23:31N 55°17' E 014°48'0 0.0
2015-May-20 22:31N 55°17' E 014°48'0 0.0
2015-May-20 21:31N 55°17' E 014°48'0 0.0
2015-May-20 20:31N 55°17' E 014°48'0 0.0
2015-May-20 19:30N 55°17' E 014°48'0 0.0
2015-May-20 18:30N 55°17' E 014°48'0 0.0
2015-May-20 17:30N 55°17' E 014°48'0 0.0
2015-May-20 16:30N 55°17' E 014°48'0 0.0
2015-May-20 15:18N 55°17' E 014°48'0 0.0
2015-May-20 14:30N 55°17' E 014°48'0 0.0
2015-May-20 13:30N 55°17' E 014°48'0 0.0
2015-May-20 12:30N 55°17' E 014°48'0 0.0
2015-May-20 11:30N 55°17' E 014°48'0 0.0
2015-May-20 10:30N 55°17' E 014°48'0 0.0
2015-May-20 09:30N 55°17' E 014°48'0 0.0
2015-May-20 08:30N 55°17' E 014°48'0 0.0
2015-May-20 07:30N 55°17' E 014°48'0 0.0
2015-May-20 06:30N 55°17' E 014°48'0 0.0
2015-May-20 05:30N 55°17' E 014°48'4 4.3
2015-May-20 04:33N 55°21' E 014°48'4 3.8
2015-May-20 03:28N 55°17' E 014°48'0 0.0
2015-May-20 02:28N 55°17' E 014°48'0 0.0
2015-May-20 01:28N 55°17' E 014°48'0 0.0
2015-May-20 00:28N 55°17' E 014°48'0 0.1
2015-May-19 23:34N 55°17' E 014°48'0 0.1
2015-May-19 22:30N 55°17' E 014°48'0 0.0
2015-May-19 21:30N 55°17' E 014°48'0 0.0
2015-May-19 20:30N 55°17' E 014°48'0 0.0
2015-May-19 19:30N 55°17' E 014°48'0 0.0
2015-May-19 18:31N 55°17' E 014°48'0 0.0
2015-May-19 17:31N 55°17' E 014°48'0 0.0
2015-May-19 16:31N 55°17' E 014°48'0 0.0
2015-May-19 15:31N 55°17' E 014°48'0 0.0
2015-May-19 14:33N 55°17' E 014°48'0 0.1
2015-May-19 13:33N 55°17' E 014°48'0 0.1
2015-May-19 12:31N 55°17' E 014°48'0 0.0
2015-May-19 11:31N 55°17' E 014°48'0 0.0
2015-May-19 10:31N 55°17' E 014°48'0 0.0
2015-May-19 09:31N 55°17' E 014°48'0 0.0
2015-May-19 08:31N 55°17' E 014°48'0 0.0
2015-May-19 07:19N 55°17' E 014°48'0 0.0
2015-May-19 06:31N 55°17' E 014°48'0 0.0
2015-May-19 05:31N 55°17' E 014°48'0 0.0
2015-May-19 04:19N 55°17' E 014°48'0 0.0
2015-May-19 03:25N 55°17' E 014°48'2 1.8
2015-May-19 02:31N 55°18' E 014°49'2 1.7
2015-May-19 01:33N 55°17' E 014°48'0 0.0
2015-May-19 00:33N 55°17' E 014°48'0 0.0
2015-May-18 23:33N 55°17' E 014°48'0 0.0
2015-May-18 22:33N 55°17' E 014°48'0 0.0
2015-May-18 21:33N 55°17' E 014°48'0 0.0
2015-May-18 20:33N 55°17' E 014°48'0 0.0
2015-May-18 19:33N 55°17' E 014°48'0 0.0
2015-May-18 18:33N 55°17' E 014°48'0 0.0
2015-May-18 17:33N 55°17' E 014°48'0 0.0
2015-May-18 16:33N 55°17' E 014°48'0 0.0
2015-May-18 15:31N 55°17' E 014°48'0 0.0
2015-May-18 14:33N 55°17' E 014°48'0 0.0
2015-May-18 13:33N 55°17' E 014°48'0 0.0
2015-May-18 12:33N 55°17' E 014°48'0 0.0
2015-May-18 11:33N 55°17' E 014°48'2 2.2
2015-May-18 10:34N 55°18' E 014°51'2 2.1
2015-May-18 09:31N 55°17' E 014°48'0 0.0
2015-May-18 08:31N 55°17' E 014°48'0 0.0
2015-May-18 07:31N 55°17' E 014°48'0 0.0
2015-May-18 06:31N 55°17' E 014°48'0 0.0
2015-May-18 05:31N 55°17' E 014°48'2 1.7
2015-May-18 04:33N 55°18' E 014°48'2 1.5
2015-May-18 03:31N 55°17' E 014°48'0 0.0
2015-May-18 02:31N 55°17' E 014°48'0 0.0
2015-May-18 01:31N 55°17' E 014°48'0 0.0
2015-May-18 00:31N 55°17' E 014°48'0 0.0
2015-May-17 23:31N 55°17' E 014°48'0 0.0
2015-May-17 22:25N 55°17' E 014°48'0 0.0
2015-May-17 21:31N 55°17' E 014°48'0 0.0
2015-May-17 20:31N 55°17' E 014°48'0 0.0
2015-May-17 19:31N 55°17' E 014°48'0 0.0
2015-May-17 18:32N 55°17' E 014°48'0 0.0
2015-May-17 17:32N 55°17' E 014°48'0 0.0
2015-May-17 16:26N 55°17' E 014°48'0 0.0
2015-May-17 15:32N 55°17' E 014°48'0 0.0
2015-May-17 14:33N 55°17' E 014°48'0 0.0
2015-May-17 13:22N 55°17' E 014°48'0 0.0
2015-May-17 12:22N 55°17' E 014°48'0 0.0
2015-May-17 11:34N 55°17' E 014°48'0 0.0
2015-May-17 10:22N 55°17' E 014°48'0 0.0
2015-May-17 09:28N 55°17' E 014°48'0 0.0
2015-May-17 08:16N 55°17' E 014°48'0 0.0
2015-May-17 07:22N 55°17' E 014°48'2 2.5
2015-May-17 06:34N 55°18' E 014°50'2 1.9
2015-May-17 05:29N 55°17' E 014°48'  

Dump ship's entire track history